createdAt,value
2022-09-10T00:00:16.422Z,13.23
2022-09-10T00:01:16.855Z,13.23
2022-09-10T00:02:16.551Z,13.25
2022-09-10T00:03:16.992Z,13.22
2022-09-10T00:04:16.425Z,13.22
2022-09-10T00:05:16.890Z,13.21
2022-09-10T00:06:16.344Z,13.19
2022-09-10T00:07:16.792Z,13.22
2022-09-10T00:08:17.249Z,13.23
2022-09-10T00:09:16.721Z,13.26
2022-09-10T00:10:17.194Z,13.27
2022-09-10T00:11:16.664Z,13.27
2022-09-10T00:12:16.855Z,13.26
2022-09-10T00:13:17.280Z,13.29
2022-09-10T00:14:16.691Z,13.32
2022-09-10T00:15:17.151Z,13.30
2022-09-10T00:16:16.787Z,13.33
2022-09-10T00:17:17.275Z,13.34
2022-09-10T00:18:16.729Z,13.30
2022-09-10T00:19:17.418Z,13.29
2022-09-10T00:20:16.892Z,13.27
2022-09-10T00:21:16.365Z,13.29
2022-09-10T00:22:17.264Z,13.32
2022-09-10T00:23:16.713Z,13.30
2022-09-10T00:24:16.291Z,13.32
2022-09-10T00:25:16.733Z,13.33
2022-09-10T00:26:17.207Z,13.36
2022-09-10T00:27:16.672Z,13.32
2022-09-10T00:28:17.086Z,13.30
2022-09-10T00:29:16.528Z,13.26
2022-09-10T00:30:16.973Z,13.27
2022-09-10T00:31:16.440Z,13.25
2022-09-10T00:32:16.620Z,13.21
2022-09-10T00:33:17.037Z,13.22
2022-09-10T00:34:16.498Z,13.21
2022-09-10T00:35:16.948Z,13.21
2022-09-10T00:36:16.415Z,13.19
2022-09-10T00:37:16.902Z,13.21
2022-09-10T00:38:16.386Z,13.19
2022-09-10T00:39:16.863Z,13.19
2022-09-10T00:40:16.342Z,13.21
2022-09-10T00:41:16.784Z,13.21
2022-09-10T00:42:16.410Z,13.22
2022-09-10T00:43:16.851Z,13.21
2022-09-10T00:44:17.315Z,13.26
2022-09-10T00:45:16.734Z,13.22
2022-09-10T00:46:17.172Z,13.25
2022-09-10T00:47:16.602Z,13.22
2022-09-10T00:48:17.026Z,13.22
2022-09-10T00:49:16.457Z,13.19
2022-09-10T00:50:16.933Z,13.18
2022-09-10T00:51:16.376Z,13.23
2022-09-10T00:52:16.853Z,13.19
2022-09-10T00:53:16.360Z,13.18
2022-09-10T00:54:16.822Z,13.16
2022-09-10T00:55:17.281Z,13.16
2022-09-10T00:56:16.710Z,13.16
2022-09-10T00:57:17.119Z,13.15
2022-09-10T00:58:16.579Z,13.14
2022-09-10T00:59:16.992Z,13.14
2022-09-10T01:00:16.435Z,13.14
2022-09-10T01:01:16.900Z,14.00
2022-09-10T01:02:16.464Z,14.01
2022-09-10T01:03:16.932Z,14.03
2022-09-10T01:04:16.367Z,14.03
2022-09-10T01:05:16.852Z,14.04
2022-09-10T01:06:16.306Z,14.04
2022-09-10T01:07:16.759Z,14.04
2022-09-10T01:08:17.219Z,14.01
2022-09-10T01:09:16.686Z,14.04
2022-09-10T01:10:17.179Z,14.04
2022-09-10T01:11:16.654Z,13.14
2022-09-10T01:12:16.388Z,13.12
2022-09-10T01:13:16.861Z,13.12
2022-09-10T01:14:16.277Z,13.12
2022-09-10T01:15:16.731Z,13.96
2022-09-10T01:16:17.175Z,13.92
2022-09-10T01:17:16.673Z,13.92
2022-09-10T01:18:17.105Z,13.90
2022-09-10T01:19:16.564Z,13.87
2022-09-10T01:20:17.056Z,13.87
2022-09-10T01:21:16.519Z,13.06
2022-09-10T01:22:16.758Z,13.06
2022-09-10T01:23:17.863Z,13.06
2022-09-10T01:24:16.534Z,13.80
2022-09-10T01:25:16.982Z,13.80
2022-09-10T01:26:16.411Z,13.80
2022-09-10T01:27:16.830Z,13.79
2022-09-10T01:28:17.257Z,13.79
2022-09-10T01:29:16.690Z,13.76
2022-09-10T01:30:17.109Z,13.76
2022-09-10T01:31:16.541Z,13.75
2022-09-10T01:32:17.216Z,13.77
2022-09-10T01:33:16.669Z,13.79
2022-09-10T01:34:17.125Z,13.12
2022-09-10T01:35:16.581Z,13.12
2022-09-10T01:36:17.038Z,13.15
2022-09-10T01:37:16.486Z,13.15
2022-09-10T01:38:16.927Z,13.14
2022-09-10T01:39:16.370Z,13.14
2022-09-10T01:40:16.852Z,13.14
2022-09-10T01:41:17.287Z,13.83
2022-09-10T01:42:16.586Z,13.82
2022-09-10T01:43:16.998Z,13.15
2022-09-10T01:44:16.411Z,13.15
2022-09-10T01:45:16.837Z,13.15
2022-09-10T01:46:17.246Z,13.79
2022-09-10T01:47:16.693Z,13.79
2022-09-10T01:48:17.125Z,13.80
2022-09-10T01:49:16.584Z,13.75
2022-09-10T01:50:17.051Z,13.77
2022-09-10T01:51:16.512Z,13.11
2022-09-10T01:52:16.735Z,13.11
2022-09-10T01:53:17.213Z,13.11
2022-09-10T01:54:16.674Z,13.83
2022-09-10T01:55:17.132Z,13.82
2022-09-10T01:56:16.550Z,13.23
2022-09-10T01:57:16.982Z,13.23
2022-09-10T01:58:16.401Z,13.23
2022-09-10T01:59:16.821Z,13.87
2022-09-10T02:00:17.260Z,13.87
2022-09-10T02:01:16.711Z,13.89
2022-09-10T02:02:16.368Z,13.98
2022-09-10T02:03:16.953Z,13.98
2022-09-10T02:04:16.394Z,13.97
2022-09-10T02:05:16.857Z,13.96
2022-09-10T02:06:16.321Z,13.98
2022-09-10T02:07:16.800Z,13.23
2022-09-10T02:08:17.271Z,13.23
2022-09-10T02:09:16.730Z,13.26
2022-09-10T02:10:17.179Z,13.26
2022-09-10T02:11:16.597Z,13.29
2022-09-10T02:12:16.458Z,13.29
2022-09-10T02:13:16.896Z,13.29
2022-09-10T02:14:16.328Z,14.10
2022-09-10T02:15:16.772Z,14.10
2022-09-10T02:16:17.234Z,13.33
2022-09-10T02:17:16.719Z,13.37
2022-09-10T02:18:17.150Z,13.37
2022-09-10T02:19:16.593Z,13.37
2022-09-10T02:20:17.050Z,13.43
2022-09-10T02:21:16.547Z,13.43
2022-09-10T02:22:17.036Z,13.43
2022-09-10T02:23:16.471Z,14.18
2022-09-10T02:24:16.919Z,13.47
2022-09-10T02:25:16.368Z,13.47
2022-09-10T02:26:16.790Z,13.47
2022-09-10T02:27:17.248Z,13.47
2022-09-10T02:28:16.666Z,13.42
2022-09-10T02:29:17.155Z,13.39
2022-09-10T02:30:16.661Z,13.44
2022-09-10T02:31:17.142Z,13.46
2022-09-10T02:32:16.895Z,13.46
2022-09-10T02:33:16.398Z,13.46
2022-09-10T02:34:16.866Z,14.22
2022-09-10T02:35:16.336Z,13.49
2022-09-10T02:36:16.833Z,13.44
2022-09-10T02:37:17.298Z,13.46
2022-09-10T02:38:16.749Z,13.47
2022-09-10T02:39:17.263Z,13.47
2022-09-10T02:40:16.678Z,13.44
2022-09-10T02:41:17.112Z,13.44
2022-09-10T02:42:16.732Z,13.44
2022-09-10T02:43:17.170Z,13.42
2022-09-10T02:44:16.595Z,13.42
2022-09-10T02:45:17.017Z,13.42
2022-09-10T02:46:16.430Z,14.21
2022-09-10T02:47:16.887Z,14.29
2022-09-10T02:48:16.405Z,14.28
2022-09-10T02:49:16.874Z,13.36
2022-09-10T02:50:16.303Z,13.37
2022-09-10T02:51:16.758Z,13.34
2022-09-10T02:52:16.302Z,13.34
2022-09-10T02:53:16.754Z,13.34
2022-09-10T02:54:17.214Z,13.40
2022-09-10T02:55:16.635Z,13.34
2022-09-10T02:56:17.076Z,13.36
2022-09-10T02:57:16.497Z,13.37
2022-09-10T02:58:16.920Z,13.42
2022-09-10T02:59:16.342Z,13.44
2022-09-10T03:00:16.772Z,13.42
2022-09-10T03:01:17.213Z,13.40
2022-09-10T03:02:17.254Z,13.42
2022-09-10T03:03:16.794Z,13.42
2022-09-10T03:04:17.289Z,13.42
2022-09-10T03:05:16.812Z,13.42
2022-09-10T03:06:16.393Z,13.40
2022-09-10T03:07:16.846Z,13.40
2022-09-10T03:08:16.336Z,13.40
2022-09-10T03:09:16.760Z,13.49
2022-09-10T03:10:17.200Z,13.49
2022-09-10T03:11:16.638Z,13.49
2022-09-10T03:12:16.549Z,13.51
2022-09-10T03:13:16.967Z,13.51
2022-09-10T03:14:16.391Z,13.51
2022-09-10T03:15:16.832Z,13.51
2022-09-10T03:16:17.305Z,13.54
2022-09-10T03:17:16.848Z,13.51
2022-09-10T03:18:16.302Z,13.51
2022-09-10T03:19:16.751Z,13.49
2022-09-10T03:20:17.219Z,13.49
2022-09-10T03:21:16.670Z,13.49
2022-09-10T03:22:16.491Z,13.49
2022-09-10T03:23:16.947Z,13.46
2022-09-10T03:24:16.389Z,13.44
2022-09-10T03:25:16.947Z,13.44
2022-09-10T03:26:16.357Z,13.43
2022-09-10T03:27:16.819Z,13.43
2022-09-10T03:28:17.230Z,13.43
2022-09-10T03:29:16.667Z,13.42
2022-09-10T03:30:17.131Z,13.42
2022-09-10T03:31:16.606Z,13.40
2022-09-10T03:32:16.575Z,13.43
2022-09-10T03:33:17.036Z,13.42
2022-09-10T03:34:16.512Z,13.46
2022-09-10T03:35:16.955Z,13.50
2022-09-10T03:36:16.430Z,13.47
2022-09-10T03:37:16.890Z,13.54
2022-09-10T03:38:16.339Z,13.54
2022-09-10T03:39:16.808Z,13.53
2022-09-10T03:40:17.259Z,13.51
2022-09-10T03:41:16.669Z,13.54
2022-09-10T03:42:17.179Z,13.53
2022-09-10T03:43:16.615Z,13.54
2022-09-10T03:44:17.042Z,13.54
2022-09-10T03:45:16.482Z,13.53
2022-09-10T03:46:16.908Z,13.53
2022-09-10T03:47:16.325Z,13.51
2022-09-10T03:48:16.763Z,13.50
2022-09-10T03:49:17.218Z,13.47
2022-09-10T03:50:16.679Z,13.47
2022-09-10T03:51:17.134Z,13.47
2022-09-10T03:52:16.659Z,13.47
2022-09-10T03:53:17.111Z,13.47
2022-09-10T03:54:16.571Z,13.47
2022-09-10T03:55:17.019Z,13.46
2022-09-10T03:56:16.431Z,13.43
2022-09-10T03:57:16.877Z,13.43
2022-09-10T03:58:16.303Z,13.47
2022-09-10T03:59:16.724Z,13.44
2022-09-10T04:00:17.152Z,13.44
2022-09-10T04:01:16.607Z,13.36
2022-09-10T04:02:16.785Z,13.33
2022-09-10T04:03:17.285Z,13.33
2022-09-10T04:04:16.747Z,13.36
2022-09-10T04:05:17.211Z,13.36
2022-09-10T04:06:16.666Z,13.36
2022-09-10T04:07:17.134Z,14.12
2022-09-10T04:08:16.611Z,13.27
2022-09-10T04:09:17.092Z,13.26
2022-09-10T04:10:16.543Z,13.22
2022-09-10T04:11:16.956Z,13.25
2022-09-10T04:12:16.308Z,13.25
2022-09-10T04:13:16.722Z,13.22
2022-09-10T04:14:17.205Z,13.23
2022-09-10T04:15:16.650Z,13.26
2022-09-10T04:16:17.117Z,13.27
2022-09-10T04:17:16.597Z,13.26
2022-09-10T04:18:17.060Z,13.22
2022-09-10T04:19:16.509Z,13.23
2022-09-10T04:20:16.975Z,13.27
2022-09-10T04:21:16.413Z,13.27
2022-09-10T04:22:16.459Z,13.25
2022-09-10T04:23:16.942Z,13.27
2022-09-10T04:24:16.427Z,13.25
2022-09-10T04:25:16.861Z,13.25
2022-09-10T04:26:16.320Z,13.25
2022-09-10T04:27:16.731Z,13.23
2022-09-10T04:28:16.370Z,13.22
2022-09-10T04:29:16.779Z,13.21
2022-09-10T04:30:17.213Z,13.21
2022-09-10T04:31:16.704Z,13.21
2022-09-10T04:32:16.615Z,13.22
2022-09-10T04:33:17.133Z,13.19
2022-09-10T04:34:16.603Z,13.19
2022-09-10T04:35:17.062Z,13.18
2022-09-10T04:36:16.544Z,13.18
2022-09-10T04:37:19.295Z,13.18
2022-09-10T04:38:16.997Z,13.21
2022-09-10T04:39:16.446Z,13.23
2022-09-10T04:40:16.887Z,13.23
2022-09-10T04:41:16.297Z,13.25
2022-09-10T04:42:16.610Z,13.32
2022-09-10T04:43:17.037Z,13.36
2022-09-10T04:44:16.460Z,13.33
2022-09-10T04:45:16.876Z,13.33
2022-09-10T04:46:16.332Z,13.30
2022-09-10T04:47:16.761Z,13.32
2022-09-10T04:48:17.194Z,13.33
2022-09-10T04:49:16.656Z,13.36
2022-09-10T04:50:17.108Z,13.36
2022-09-10T04:51:17.364Z,13.43
2022-09-10T04:52:16.446Z,13.40
2022-09-10T04:53:16.908Z,13.40
2022-09-10T04:54:16.410Z,13.42
2022-09-10T04:55:16.830Z,13.43
2022-09-10T04:56:17.274Z,13.43
2022-09-10T04:57:16.723Z,13.44
2022-09-10T04:58:17.134Z,13.47
2022-09-10T04:59:16.565Z,13.46
2022-09-10T05:00:16.995Z,13.43
2022-09-10T05:01:16.457Z,13.47
2022-09-10T05:02:16.996Z,13.53
2022-09-10T05:03:16.612Z,13.51
2022-09-10T05:04:17.083Z,13.54
2022-09-10T05:05:16.518Z,13.57
2022-09-10T05:06:16.998Z,13.60
2022-09-10T05:07:16.464Z,13.57
2022-09-10T05:08:16.924Z,13.60
2022-09-10T05:09:16.402Z,13.61
2022-09-10T05:10:16.840Z,13.61
2022-09-10T05:11:17.296Z,13.64
2022-09-10T05:12:16.305Z,13.64
2022-09-10T05:13:16.725Z,13.64
2022-09-10T05:14:17.210Z,13.65
2022-09-10T05:15:16.662Z,13.60
2022-09-10T05:16:17.136Z,13.60
2022-09-10T05:17:16.628Z,13.60
2022-09-10T05:18:17.198Z,13.65
2022-09-10T05:19:16.759Z,13.65
2022-09-10T05:20:17.216Z,13.64
2022-09-10T05:21:16.666Z,13.68
2022-09-10T05:22:16.421Z,13.68
2022-09-10T05:23:16.869Z,13.65
2022-09-10T05:24:16.307Z,13.73
2022-09-10T05:25:16.728Z,13.73
2022-09-10T05:26:17.166Z,13.77
2022-09-10T05:27:16.602Z,13.77
2022-09-10T05:28:17.033Z,13.77
2022-09-10T05:29:16.463Z,13.76
2022-09-10T05:30:17.055Z,13.76
2022-09-10T05:31:16.550Z,13.81
2022-09-10T05:32:17.074Z,13.78
2022-09-10T05:33:16.528Z,13.74
2022-09-10T05:34:17.024Z,13.76
2022-09-10T05:35:16.506Z,13.78
2022-09-10T05:36:16.979Z,13.77
2022-09-10T05:37:16.427Z,13.78
2022-09-10T05:38:16.906Z,13.76
2022-09-10T05:39:16.347Z,13.76
2022-09-10T05:40:16.776Z,13.71
2022-09-10T05:41:17.219Z,13.80
2022-09-10T05:42:16.871Z,13.78
2022-09-10T05:43:16.304Z,13.74
2022-09-10T05:44:16.740Z,13.73
2022-09-10T05:45:17.167Z,13.70
2022-09-10T05:46:16.591Z,13.64
2022-09-10T05:47:17.082Z,13.65
2022-09-10T05:48:16.544Z,13.63
2022-09-10T05:49:17.022Z,13.63
2022-09-10T05:50:16.481Z,13.60
2022-09-10T05:51:16.926Z,13.55
2022-09-10T05:52:16.451Z,13.54
2022-09-10T05:53:16.901Z,13.53
2022-09-10T05:54:16.309Z,13.51
2022-09-10T05:55:16.734Z,13.47
2022-09-10T05:56:17.147Z,13.46
2022-09-10T05:57:16.559Z,13.50
2022-09-10T05:58:16.999Z,13.50
2022-09-10T05:59:16.427Z,13.50
2022-09-10T06:00:16.865Z,13.53
2022-09-10T06:01:16.315Z,13.49
2022-09-10T06:02:19.540Z,13.47
2022-09-10T06:03:16.621Z,13.46
2022-09-10T06:04:17.209Z,13.47
2022-09-10T06:05:16.680Z,13.50
2022-09-10T06:06:17.123Z,13.50
2022-09-10T06:07:16.551Z,13.51
2022-09-10T06:08:16.968Z,13.55
2022-09-10T06:09:16.413Z,13.57
2022-09-10T06:10:16.827Z,13.55
2022-09-10T06:11:17.272Z,13.54
2022-09-10T06:12:16.965Z,13.57
2022-09-10T06:13:16.440Z,13.61
2022-09-10T06:14:16.874Z,13.65
2022-09-10T06:15:16.339Z,13.63
2022-09-10T06:16:16.829Z,13.71
2022-09-10T06:17:16.347Z,13.71
2022-09-10T06:18:16.839Z,13.74
2022-09-10T06:19:16.532Z,13.74
2022-09-10T06:20:16.972Z,13.81
2022-09-10T06:21:16.415Z,13.80
2022-09-10T06:22:17.220Z,13.77
2022-09-10T06:23:16.648Z,13.81
2022-09-10T06:24:17.072Z,13.88
2022-09-10T06:25:16.493Z,13.81
2022-09-10T06:26:16.909Z,13.84
2022-09-10T06:27:16.340Z,13.88
2022-09-10T06:28:16.768Z,13.85
2022-09-10T06:29:17.564Z,13.84
2022-09-10T06:30:17.024Z,13.95
2022-09-10T06:31:16.511Z,13.95
2022-09-10T06:32:17.091Z,13.88
2022-09-10T06:33:16.557Z,13.97
2022-09-10T06:34:16.999Z,14.00
2022-09-10T06:35:16.498Z,13.95
2022-09-10T06:36:16.951Z,14.02
2022-09-10T06:37:16.363Z,13.88
2022-09-10T06:38:16.796Z,14.07
2022-09-10T06:39:17.229Z,14.09
2022-09-10T06:40:16.656Z,14.00
2022-09-10T06:41:17.069Z,14.08
2022-09-10T06:42:16.627Z,14.01
2022-09-10T06:43:17.088Z,14.11
2022-09-10T06:44:16.553Z,14.11
2022-09-10T06:45:17.006Z,14.11
2022-09-10T06:46:41.074Z,14.04
2022-09-10T06:47:55.713Z,14.07
2022-09-10T06:48:38.050Z,14.12
2022-09-10T06:49:16.871Z,14.05
2022-09-10T06:50:16.342Z,14.01
2022-09-10T06:51:16.751Z,14.00
2022-09-10T06:52:16.401Z,14.09
2022-09-10T06:53:16.810Z,14.01
2022-09-10T06:54:17.255Z,14.07
2022-09-10T06:55:16.683Z,13.98
2022-09-10T06:56:17.097Z,14.01
2022-09-10T06:57:16.514Z,14.02
2022-09-10T06:58:16.971Z,14.02
2022-09-10T06:59:16.427Z,13.98
2022-09-10T07:00:16.891Z,13.98
2022-09-10T07:01:16.367Z,14.11
2022-09-10T07:02:16.845Z,14.13
2022-09-10T07:03:16.350Z,14.07
2022-09-10T07:04:16.806Z,14.07
2022-09-10T07:05:17.267Z,14.15
2022-09-10T07:06:16.710Z,14.13
2022-09-10T07:07:17.164Z,14.09
2022-09-10T07:08:16.579Z,14.18
2022-09-10T07:09:17.012Z,14.18
2022-09-10T07:10:16.474Z,14.12
2022-09-10T07:11:16.898Z,14.18
2022-09-10T07:12:16.471Z,14.23
2022-09-10T07:13:16.948Z,14.28
2022-09-10T07:14:16.446Z,14.29
2022-09-10T07:15:16.906Z,14.39
2022-09-10T07:16:16.409Z,14.39
2022-09-10T07:17:16.945Z,14.52
2022-09-10T07:18:16.403Z,14.57
2022-09-10T07:19:16.871Z,14.56
2022-09-10T07:20:16.339Z,14.62
2022-09-10T07:21:16.766Z,14.64
2022-09-10T07:22:16.400Z,14.63
2022-09-10T07:23:16.827Z,14.60
2022-09-10T07:24:16.724Z,14.66
2022-09-10T07:25:17.163Z,14.67
2022-09-10T07:26:16.591Z,14.67
2022-09-10T07:27:17.016Z,14.73
2022-09-10T07:28:16.481Z,14.70
2022-09-10T07:29:16.949Z,14.77
2022-09-10T07:30:16.427Z,14.85
2022-09-10T07:31:16.969Z,14.83
2022-09-10T07:32:16.459Z,14.85
2022-09-10T07:33:16.908Z,14.81
2022-09-10T07:34:16.365Z,14.85
2022-09-10T07:35:16.803Z,14.92
2022-09-10T07:36:17.256Z,14.87
2022-09-10T07:37:16.712Z,14.84
2022-09-10T07:38:17.122Z,14.88
2022-09-10T07:39:16.571Z,14.77
2022-09-10T07:40:16.997Z,14.67
2022-09-10T07:41:16.426Z,14.67
2022-09-10T07:42:16.844Z,14.87
2022-09-10T07:43:16.313Z,14.95
2022-09-10T07:44:16.756Z,14.95
2022-09-10T07:45:17.200Z,14.85
2022-09-10T07:46:16.678Z,14.84
2022-09-10T07:47:17.279Z,14.74
2022-09-10T07:48:16.742Z,14.78
2022-09-10T07:49:17.224Z,15.01
2022-09-10T07:50:16.633Z,14.99
2022-09-10T07:51:17.062Z,15.06
2022-09-10T07:52:16.915Z,15.23
2022-09-10T07:53:16.330Z,15.38
2022-09-10T07:54:16.771Z,15.36
2022-09-10T07:55:17.196Z,15.35
2022-09-10T07:56:16.658Z,15.39
2022-09-10T07:57:17.127Z,15.52
2022-09-10T07:58:16.583Z,15.53
2022-09-10T07:59:17.027Z,15.60
2022-09-10T08:00:16.467Z,15.62
2022-09-10T08:01:16.926Z,15.53
2022-09-10T08:02:17.017Z,15.43
2022-09-10T08:03:16.546Z,15.49
2022-09-10T08:04:16.964Z,15.36
2022-09-10T08:05:16.423Z,15.29
2022-09-10T08:06:16.838Z,15.38
2022-09-10T08:07:17.273Z,15.42
2022-09-10T08:08:16.720Z,15.32
2022-09-10T08:09:17.168Z,15.25
2022-09-10T08:10:16.590Z,15.22
2022-09-10T08:11:17.083Z,15.21
2022-09-10T08:12:16.478Z,15.16
2022-09-10T08:13:16.928Z,15.15
2022-09-10T08:14:16.377Z,15.16
2022-09-10T08:15:16.863Z,15.26
2022-09-10T08:16:16.325Z,15.26
2022-09-10T08:17:16.822Z,15.22
2022-09-10T08:18:17.272Z,15.31
2022-09-10T08:19:16.690Z,15.45
2022-09-10T08:20:17.107Z,15.28
2022-09-10T08:21:16.535Z,15.29
2022-09-10T08:22:16.355Z,15.31
2022-09-10T08:23:16.791Z,15.26
2022-09-10T08:24:17.275Z,15.26
2022-09-10T08:25:16.696Z,15.35
2022-09-10T08:26:17.151Z,15.32
2022-09-10T08:27:16.645Z,15.42
2022-09-10T08:28:17.108Z,15.42
2022-09-10T08:29:16.567Z,15.43
2022-09-10T08:30:17.055Z,15.35
2022-09-10T08:31:16.803Z,15.29
2022-09-10T08:32:16.843Z,15.28
2022-09-10T08:33:16.308Z,15.25
2022-09-10T08:34:16.737Z,15.36
2022-09-10T08:35:16.653Z,15.42
2022-09-10T08:36:17.067Z,15.47
2022-09-10T08:37:16.496Z,15.36
2022-09-10T08:38:16.939Z,15.26
2022-09-10T08:39:16.374Z,15.33
2022-09-10T08:40:16.879Z,15.32
2022-09-10T08:41:16.488Z,15.32
2022-09-10T08:42:16.709Z,15.28
2022-09-10T08:43:17.166Z,15.33
2022-09-10T08:44:16.638Z,15.41
2022-09-10T08:45:17.099Z,15.28
2022-09-10T08:46:16.562Z,15.39
2022-09-10T08:47:17.016Z,15.49
2022-09-10T08:48:16.474Z,15.47
2022-09-10T08:49:16.913Z,15.43
2022-09-10T08:50:16.327Z,15.35
2022-09-10T08:51:16.758Z,15.26
2022-09-10T08:52:16.383Z,15.29
2022-09-10T08:53:16.826Z,15.28
2022-09-10T08:54:17.283Z,15.26
2022-09-10T08:55:16.705Z,15.22
2022-09-10T08:56:17.164Z,15.16
2022-09-10T08:57:16.634Z,15.25
2022-09-10T08:58:17.095Z,15.33
2022-09-10T08:59:16.551Z,15.28
2022-09-10T09:00:17.024Z,15.29
2022-09-10T09:01:16.529Z,15.31
2022-09-10T09:02:31.853Z,15.21
2022-09-10T09:03:16.700Z,15.32
2022-09-10T09:04:16.275Z,15.29
2022-09-10T09:05:16.707Z,15.33
2022-09-10T09:06:17.135Z,15.36
2022-09-10T09:07:16.555Z,15.36
2022-09-10T09:08:16.963Z,15.38
2022-09-10T09:09:16.391Z,15.33
2022-09-10T09:10:16.836Z,15.41
2022-09-10T09:11:16.294Z,15.41
2022-09-10T09:12:16.687Z,15.31
2022-09-10T09:13:17.139Z,15.23
2022-09-10T09:14:16.598Z,15.22
2022-09-10T09:15:17.073Z,15.35
2022-09-10T09:16:16.536Z,15.38
2022-09-10T09:17:16.960Z,15.32
2022-09-10T09:18:17.395Z,15.41
2022-09-10T09:19:16.813Z,15.46
2022-09-10T09:20:17.233Z,15.67
2022-09-10T09:21:16.680Z,15.66
2022-09-10T09:22:16.320Z,15.74
2022-09-10T09:23:16.735Z,15.80
2022-09-10T09:24:17.202Z,15.81
2022-09-10T09:25:16.678Z,15.81
2022-09-10T09:26:17.123Z,15.71
2022-09-10T09:27:16.591Z,15.82
2022-09-10T09:28:17.038Z,15.87
2022-09-10T09:29:16.496Z,15.97
2022-09-10T09:30:16.938Z,15.97
2022-09-10T09:31:16.390Z,16.11
2022-09-10T09:32:17.153Z,16.05
2022-09-10T09:33:16.564Z,16.07
2022-09-10T09:34:17.003Z,16.08
2022-09-10T09:35:16.440Z,16.29
2022-09-10T09:36:17.131Z,16.33
2022-09-10T09:37:16.563Z,16.40
2022-09-10T09:38:17.015Z,16.36
2022-09-10T09:39:16.481Z,16.24
2022-09-10T09:40:16.973Z,16.19
2022-09-10T09:41:16.439Z,16.35
2022-09-10T09:42:17.063Z,16.38
2022-09-10T09:43:16.516Z,16.12
2022-09-10T09:44:16.986Z,16.17
2022-09-10T09:45:16.486Z,16.27
2022-09-10T09:46:16.955Z,16.27
2022-09-10T09:47:16.385Z,16.22
2022-09-10T09:48:16.823Z,16.25
2022-09-10T09:49:17.275Z,16.40
2022-09-10T09:50:16.703Z,16.40
2022-09-10T09:51:17.139Z,16.55
2022-09-10T09:52:16.988Z,16.78
2022-09-10T09:53:16.404Z,16.88
2022-09-10T09:54:46.956Z,16.74
2022-09-10T09:55:16.313Z,16.56
2022-09-10T09:56:16.804Z,16.59
2022-09-10T09:57:17.275Z,16.74
2022-09-10T09:58:16.735Z,16.70
2022-09-10T09:59:17.198Z,16.64
2022-09-10T10:00:16.704Z,16.67
2022-09-10T10:01:17.164Z,16.38
2022-09-10T10:02:16.688Z,16.36
2022-09-10T10:03:17.207Z,16.32
2022-09-10T10:04:16.644Z,16.32
2022-09-10T10:05:17.071Z,16.35
2022-09-10T10:06:16.506Z,16.35
2022-09-10T10:07:16.944Z,16.29
2022-09-10T10:08:16.441Z,16.24
2022-09-10T10:09:16.904Z,16.24
2022-09-10T10:10:16.359Z,16.17
2022-09-10T10:11:16.807Z,16.09
2022-09-10T10:12:17.239Z,16.17
2022-09-10T10:13:16.701Z,16.19
2022-09-10T10:14:17.174Z,16.14
2022-09-10T10:15:16.623Z,16.05
2022-09-10T10:16:17.034Z,16.02
2022-09-10T10:17:16.471Z,15.91
2022-09-10T10:18:16.900Z,15.84
2022-09-10T10:19:16.322Z,15.80
2022-09-10T10:20:16.743Z,15.84
2022-09-10T10:21:17.195Z,15.67
2022-09-10T10:22:16.343Z,15.70
2022-09-10T10:23:16.816Z,15.71
2022-09-10T10:24:17.276Z,15.66
2022-09-10T10:25:16.772Z,15.57
2022-09-10T10:26:17.210Z,15.50
2022-09-10T10:27:16.652Z,15.36
2022-09-10T10:28:17.104Z,15.29
2022-09-10T10:29:16.548Z,15.26
2022-09-10T10:30:16.975Z,15.22
2022-09-10T10:31:16.465Z,15.15
2022-09-10T10:32:16.513Z,15.09
2022-09-10T10:33:16.966Z,14.88
2022-09-10T10:34:16.383Z,14.85
2022-09-10T10:35:16.818Z,14.80
2022-09-10T10:36:17.250Z,14.77
2022-09-10T10:37:16.699Z,14.78
2022-09-10T10:38:17.134Z,14.70
2022-09-10T10:39:16.574Z,14.68
2022-09-10T10:40:17.174Z,14.76
2022-09-10T10:41:16.638Z,14.77
2022-09-10T10:42:17.036Z,14.74
2022-09-10T10:43:16.533Z,14.73
2022-09-10T10:44:16.966Z,14.78
2022-09-10T10:45:16.378Z,14.81
2022-09-10T10:46:16.841Z,14.90
2022-09-10T10:47:16.340Z,14.87
2022-09-10T10:48:16.755Z,14.78
2022-09-10T10:49:17.193Z,14.81
2022-09-10T10:50:16.622Z,14.76
2022-09-10T10:51:17.061Z,14.84
2022-09-10T10:52:16.557Z,14.83
2022-09-10T10:53:17.027Z,14.85
2022-09-10T10:54:16.485Z,14.83
2022-09-10T10:55:16.935Z,14.81
2022-09-10T10:56:16.403Z,14.78
2022-09-10T10:57:16.854Z,14.71
2022-09-10T10:58:16.347Z,14.77
2022-09-10T10:59:16.787Z,14.81
2022-09-10T11:00:17.231Z,14.87
2022-09-10T11:01:16.714Z,14.85
2022-09-10T11:02:16.679Z,14.87
2022-09-10T11:03:17.270Z,14.97
2022-09-10T11:04:16.704Z,15.08
2022-09-10T11:05:17.127Z,15.14
2022-09-10T11:06:16.556Z,15.29
2022-09-10T11:07:17.006Z,15.29
2022-09-10T11:08:16.480Z,15.18
2022-09-10T11:09:16.950Z,15.32
2022-09-10T11:10:16.410Z,15.43
2022-09-10T11:11:16.907Z,15.49
2022-09-10T11:12:16.373Z,15.56
2022-09-10T11:13:16.805Z,15.64
2022-09-10T11:14:17.274Z,15.70
2022-09-10T11:15:16.697Z,15.77
2022-09-10T11:16:17.155Z,15.78
2022-09-10T11:17:16.675Z,15.82
2022-09-10T11:18:17.115Z,16.19
2022-09-10T11:19:16.571Z,16.39
2022-09-10T11:20:28.287Z,16.24
2022-09-10T11:21:16.439Z,16.24
2022-09-10T11:22:16.332Z,16.24
2022-09-10T11:23:16.775Z,16.29
2022-09-10T11:24:17.401Z,16.29
2022-09-10T11:25:16.983Z,16.29
2022-09-10T11:26:16.441Z,16.15
2022-09-10T11:27:16.889Z,16.25
2022-09-10T11:28:16.316Z,16.33
2022-09-10T11:29:16.759Z,16.27
2022-09-10T11:30:17.217Z,16.32
2022-09-10T11:31:16.693Z,16.49
2022-09-10T11:32:16.314Z,16.52
2022-09-10T11:33:16.747Z,16.52
2022-09-10T11:34:17.215Z,16.45
2022-09-10T11:35:16.651Z,16.33
2022-09-10T11:36:17.103Z,16.29
2022-09-10T11:37:16.555Z,16.15
2022-09-10T11:38:17.011Z,16.18
2022-09-10T11:39:16.458Z,16.17
2022-09-10T11:40:16.919Z,16.05
2022-09-10T11:41:16.391Z,15.88
2022-09-10T11:42:16.957Z,15.91
2022-09-10T11:43:16.396Z,15.92
2022-09-10T11:44:16.819Z,15.88
2022-09-10T11:45:17.252Z,16.05
2022-09-10T11:46:16.719Z,16.11
2022-09-10T11:47:17.264Z,16.05
2022-09-10T11:48:16.692Z,16.09
2022-09-10T11:49:17.134Z,16.19
2022-09-10T11:50:16.586Z,16.25
2022-09-10T11:51:17.089Z,16.22
2022-09-10T11:52:16.703Z,16.36
2022-09-10T11:53:17.151Z,16.68
2022-09-10T11:54:16.585Z,16.78
2022-09-10T11:55:17.088Z,16.83
2022-09-10T11:56:16.579Z,16.63
2022-09-10T11:57:17.018Z,16.33
2022-09-10T11:58:16.439Z,16.47
2022-09-10T11:59:16.855Z,16.60
2022-09-10T12:00:17.271Z,16.53
2022-09-10T12:01:16.732Z,16.60
2022-09-10T12:02:16.480Z,16.63
2022-09-10T12:03:17.075Z,16.67
2022-09-10T12:04:16.620Z,16.53
2022-09-10T12:05:17.046Z,16.42
2022-09-10T12:06:16.527Z,16.46
2022-09-10T12:07:17.011Z,16.53
2022-09-10T12:08:16.513Z,16.57
2022-09-10T12:09:16.960Z,16.64
2022-09-10T12:10:16.435Z,16.57
2022-09-10T12:11:16.895Z,16.57
2022-09-10T12:12:16.935Z,16.64
2022-09-10T12:13:16.345Z,16.66
2022-09-10T12:14:16.843Z,16.63
2022-09-10T12:15:17.281Z,16.60
2022-09-10T12:16:16.796Z,16.68
2022-09-10T12:17:16.342Z,16.78
2022-09-10T12:18:16.761Z,16.87
2022-09-10T12:19:17.200Z,16.86
2022-09-10T12:20:16.692Z,16.94
2022-09-10T12:21:17.165Z,17.04
2022-09-10T12:22:17.032Z,17.14
2022-09-10T12:23:16.526Z,17.28
2022-09-10T12:24:17.004Z,17.28
2022-09-10T12:25:16.448Z,17.52
2022-09-10T12:26:16.907Z,17.56
2022-09-10T12:27:16.335Z,17.65
2022-09-10T12:28:16.763Z,17.48
2022-09-10T12:29:17.240Z,17.62
2022-09-10T12:30:16.680Z,17.68
2022-09-10T12:31:17.152Z,17.76
2022-09-10T12:32:16.863Z,17.73
2022-09-10T12:33:16.289Z,17.83
2022-09-10T12:34:16.718Z,18.01
2022-09-10T12:35:17.220Z,18.28
2022-09-10T12:36:16.679Z,18.24
2022-09-10T12:37:17.137Z,18.42
2022-09-10T12:38:16.776Z,18.59
2022-09-10T12:39:17.242Z,18.54
2022-09-10T12:40:16.740Z,18.19
2022-09-10T12:41:16.329Z,18.07
2022-09-10T12:42:16.920Z,17.94
2022-09-10T12:43:16.337Z,18.00
2022-09-10T12:44:16.756Z,17.89
2022-09-10T12:45:16.450Z,17.89
2022-09-10T12:46:16.900Z,17.93
2022-09-10T12:47:16.400Z,18.28
2022-09-10T12:48:16.855Z,18.49
2022-09-10T12:49:16.307Z,18.87
2022-09-10T12:50:16.776Z,19.05
2022-09-10T12:51:17.256Z,18.76
2022-09-10T12:52:16.910Z,18.63